logo
Rechercher aéroport 
image banner adimage banner adimage banner ad
image banner ad

SNHG - Fazenda Varjadao

Situé à Sandolandia, Brazil

ICAO - SNHG, IATA -

Données fournies par Airmate  

Information générale

Coordonnées: S12°20'29" W49°37'16"
Élévation : 793 feet MSL.
Variation magnétique : -21.22184504° East
Voir autres Aéroports à Tocatins

Données opérationnelles

Special qualification required
Heure actuelle UTC:
Heure actuelle locale:
Météo à : - ( 0 km )
METAR: PAMO 152048Z AUTO 24007KT 2 1/2SM -RA BR BKN006 OVC011 08/07 A2966 RMK AO2 VIS 2V5 RAE00B40 CIG 004V009 P0000
Voir NOTAMs / SUP AIP / TFR affectant cet aéroport [VIEW]
Fréquences de communication: [VIEW]

Pistes:

Identifiant RWYQFULongueur (ft)Largeur (ft)SurfaceLDA (ft)
01328159ASPH
19328159ASPH

Coordonnées de l'aéroport

Adresse: Sandolandia Brazil

Vue satellite de SNHG